Time;durP1;ratioP1;P1;durP2;ratioP2;P2;SDS_P1;SDS_P2;PMS_P1;PMS_P2;Temp;Humidity;BMP_temperature;BMP_pressure;BME280_temperature;BME280_humidity;BME280_pressure;Samples;Min_cycle;Max_cycle;Signal;HPM_P1;HPM_P2
2022/10/30 00:00:31;;;;;;;16.90;4.30;;;12.10;99.90;;;;;;4997323;28;19925;-57
2022/10/30 00:02:58;;;;;;;;;;;12.10;99.90;;;;;;5000965;28;20305;-55
2022/10/30 00:05:26;;;;;;;23.98;4.13;;;12.10;99.90;;;;;;4998453;28;19925;-57
2022/10/30 00:07:56;;;;;;;14.10;4.22;;;12.10;99.90;;;;;;4997554;28;20058;-58
2022/10/30 00:10:24;;;;;;;13.40;3.72;;;12.10;99.90;;;;;;4998581;28;20049;-57
2022/10/30 00:12:51;;;;;;;20.70;3.97;;;12.10;99.90;;;;;;4999186;28;20042;-55
2022/10/30 00:15:18;;;;;;;24.52;5.45;;;12.10;99.90;;;;;;4995885;28;20088;-58
2022/10/30 00:17:44;;;;;;;;;;;12.20;99.90;;;;;;4996444;28;20046;-56
2022/10/30 00:20:11;;;;;;;11.27;3.70;;;12.20;99.90;;;;;;4996843;28;20642;-56
2022/10/30 00:22:37;;;;;;;19.23;3.33;;;12.20;99.90;;;;;;4993097;28;20424;-56
2022/10/30 00:25:04;;;;;;;18.38;4.53;;;12.20;99.90;;;;;;4999310;28;20157;-58
2022/10/30 00:27:31;;;;;;;18.80;4.25;;;12.20;99.90;;;;;;4995930;28;20496;-55
2022/10/30 00:29:58;;;;;;;14.13;3.88;;;12.20;99.90;;;;;;4997063;28;20067;-57
2022/10/30 00:32:24;;;;;;;;;;;12.30;99.90;;;;;;4997494;28;20049;-57
2022/10/30 00:34:51;;;;;;;11.70;3.47;;;12.30;99.90;;;;;;4997324;28;20302;-54
2022/10/30 00:37:18;;;;;;;16.77;4.32;;;12.30;99.90;;;;;;4998281;28;20042;-54
2022/10/30 00:39:44;;;;;;;;;;;12.30;99.90;;;;;;4998191;28;20046;-57
2022/10/30 00:42:15;;;;;;;11.75;2.97;;;12.30;99.90;;;;;;5005495;28;19929;-56
2022/10/30 00:44:51;;;;;;;10.90;3.22;;;12.30;99.90;;;;;;4997652;28;20348;-55
2022/10/30 00:47:20;;;;;;;25.98;6.47;;;12.30;99.90;;;;;;4994950;28;20119;-56
2022/10/30 00:50:12;;;;;;;16.88;3.58;;;12.30;99.90;;;;;;4997559;28;20041;-57
2022/10/30 00:52:49;;;;;;;8.25;3.35;;;12.30;99.90;;;;;;4997932;28;20132;-55
2022/10/30 00:55:25;;;;;;;19.05;3.97;;;12.20;99.90;;;;;;4997944;28;20069;-55
2022/10/30 00:57:52;;;;;;;14.00;3.90;;;12.30;99.90;;;;;;5001972;28;20073;-56
2022/10/30 01:00:22;;;;;;;;;;;12.20;99.90;;;;;;4998787;28;20137;-57
2022/10/30 01:02:50;;;;;;;23.17;4.78;;;12.20;99.90;;;;;;4998890;28;20278;-57
2022/10/30 01:05:20;;;;;;;13.68;3.53;;;12.20;99.90;;;;;;4996741;28;20049;-56
2022/10/30 01:07:46;;;;;;;13.57;3.25;;;12.10;99.90;;;;;;4997779;28;20069;-58
2022/10/30 01:10:13;;;;;;;;;;;12.10;99.90;;;;;;4998795;28;20336;-56
2022/10/30 01:12:43;;;;;;;12.63;4.77;;;12.00;99.90;;;;;;5003469;28;19964;-56
2022/10/30 01:15:11;;;;;;;22.65;6.85;;;12.00;99.90;;;;;;4997382;28;20449;-56
2022/10/30 01:17:44;;;;;;;10.80;4.03;;;12.00;99.90;;;;;;4996972;28;20052;-53
2022/10/30 01:20:31;;;;;;;16.02;4.45;;;12.00;99.90;;;;;;5011502;28;20068;-56
2022/10/30 01:23:22;;;;;;;11.50;4.32;;;12.00;99.90;;;;;;5005924;28;20274;-53
2022/10/30 01:26:05;;;;;;;13.70;4.05;;;12.00;99.90;;;;;;4999346;28;20050;-56
2022/10/30 01:29:10;;;;;;;21.08;3.78;;;11.90;99.90;;;;;;4997050;28;20057;-57
2022/10/30 01:32:14;;;;;;;22.70;4.03;;;11.90;99.90;;;;;;4994781;28;20046;-56
2022/10/30 01:34:59;;;;;;;14.80;4.35;;;11.90;99.90;;;;;;4996732;28;20144;-58
2022/10/30 01:37:40;;;;;;;18.42;4.00;;;11.90;99.90;;;;;;4997955;28;20034;-55
2022/10/30 01:40:16;;;;;;;18.17;3.88;;;12.00;99.90;;;;;;4999559;28;20132;-56
2022/10/30 01:42:52;;;;;;;13.52;3.53;;;11.90;99.90;;;;;;4993667;28;20045;-56
2022/10/30 01:45:37;;;;;;;15.43;4.05;;;12.00;99.90;;;;;;5006165;28;20124;-55
2022/10/30 01:48:46;;;;;;;10.10;4.28;;;12.00;99.90;;;;;;4998390;28;20628;-55
2022/10/30 01:51:35;;;;;;;19.08;3.88;;;11.90;99.90;;;;;;5014468;28;20688;-56
2022/10/30 01:54:36;;;;;;;19.90;4.45;;;12.00;99.90;;;;;;5004876;28;20354;-54
2022/10/30 01:57:15;;;;;;;14.23;3.22;;;11.90;99.90;;;;;;5005156;28;20525;-56
2022/10/30 02:00:08;;;;;;;18.17;4.47;;;12.00;99.90;;;;;;5009760;28;20438;-56
2022/10/30 02:02:46;;;;;;;13.02;3.17;;;12.00;99.90;;;;;;5004398;28;20401;-56
2022/10/30 02:05:26;;;;;;;11.77;4.30;;;12.00;99.90;;;;;;5004199;28;20435;-57
2022/10/30 02:07:53;;;;;;;14.68;3.83;;;12.00;99.90;;;;;;4994461;28;20060;-56
2022/10/30 02:10:22;;;;;;;15.60;4.38;;;11.90;99.90;;;;;;5005611;28;20049;-58
2022/10/30 02:12:49;;;;;;;16.30;4.60;;;11.80;99.90;;;;;;5001939;28;20520;-58
2022/10/30 02:15:16;;;;;;;16.70;5.18;;;11.80;99.90;;;;;;4991975;28;20266;-55
2022/10/30 02:17:43;;;;;;;9.93;3.47;;;11.80;99.90;;;;;;4997912;28;20284;-57
2022/10/30 02:20:17;;;;;;;10.13;3.88;;;11.80;99.90;;;;;;4993209;28;20050;-58
2022/10/30 02:22:45;;;;;;;10.40;4.63;;;11.80;99.90;;;;;;4996904;28;20133;-56
2022/10/30 02:25:13;;;;;;;17.77;4.13;;;11.70;99.90;;;;;;5002725;28;20056;-55
2022/10/30 02:27:39;;;;;;;17.95;4.05;;;11.70;99.90;;;;;;5002825;28;20063;-55
2022/10/30 02:30:10;;;;;;;8.30;2.53;;;11.80;99.90;;;;;;5004209;28;20116;-58
2022/10/30 02:32:37;;;;;;;19.10;5.00;;;11.80;99.90;;;;;;4992041;28;20499;-56
2022/10/30 02:35:05;;;;;;;22.42;4.80;;;11.80;99.90;;;;;;5003170;28;20044;-57
2022/10/30 02:37:34;;;;;;;18.25;4.07;;;11.70;99.90;;;;;;4997798;28;20096;-59
2022/10/30 02:40:02;;;;;;;15.43;3.40;;;11.70;99.90;;;;;;4996507;28;20069;-57
2022/10/30 02:42:29;;;;;;;18.48;3.58;;;11.70;99.90;;;;;;4997010;28;20050;-56
2022/10/30 02:44:56;;;;;;;11.85;3.55;;;11.70;99.90;;;;;;4996442;28;20287;-56
2022/10/30 02:47:23;;;;;;;25.58;3.88;;;11.70;99.90;;;;;;5007734;28;20061;-54
2022/10/30 02:49:49;;;;;;;20.17;3.55;;;11.70;99.90;;;;;;5006404;28;20125;-57
2022/10/30 02:52:16;;;;;;;;;;;11.80;99.90;;;;;;5000017;28;20048;-57
2022/10/30 02:54:43;;;;;;;15.68;3.70;;;11.80;99.90;;;;;;5008090;28;19926;-56
2022/10/30 02:57:09;;;;;;;19.15;4.03;;;11.80;99.90;;;;;;4999972;28;20042;-57
2022/10/30 02:59:37;;;;;;;15.70;3.63;;;11.90;99.90;;;;;;4996695;28;20813;-56
2022/10/30 03:02:03;;;;;;;11.18;3.38;;;11.90;99.90;;;;;;5000967;28;20521;-57
2022/10/30 03:04:30;;;;;;;;;;;11.90;99.90;;;;;;5001233;28;20046;-54
2022/10/30 03:06:57;;;;;;;14.55;3.35;;;11.90;99.90;;;;;;5002460;28;19925;-57
2022/10/30 03:09:23;;;;;;;14.23;3.80;;;11.90;99.90;;;;;;5006614;28;20149;-57
2022/10/30 03:11:50;;;;;;;;;;;11.90;99.90;;;;;;5002788;28;20219;-56
2022/10/30 03:14:17;;;;;;;14.88;3.40;;;11.80;99.90;;;;;;5005244;28;20434;-57
2022/10/30 03:16:43;;;;;;;14.93;4.30;;;11.80;99.90;;;;;;5001281;28;20140;-57
2022/10/30 03:19:10;;;;;;;18.63;3.45;;;11.80;99.90;;;;;;4999293;28;20050;-58
2022/10/30 03:21:37;;;;;;;11.18;3.20;;;11.80;99.90;;;;;;4997160;28;21004;-58
2022/10/30 03:24:04;;;;;;;25.75;3.97;;;11.90;99.90;;;;;;4998619;28;20048;-57
2022/10/30 03:26:31;;;;;;;15.05;3.58;;;11.90;99.90;;;;;;5004525;28;20272;-57
2022/10/30 03:29:04;;;;;;;12.10;3.28;;;11.90;99.90;;;;;;5004628;28;20042;-57
2022/10/30 03:31:32;;;;;;;25.33;4.20;;;11.90;99.90;;;;;;4998734;28;20141;-55
2022/10/30 03:34:10;;;;;;;10.45;3.72;;;11.90;99.90;;;;;;4998425;28;20765;-57
2022/10/30 03:36:36;;;;;;;9.90;2.55;;;11.90;99.90;;;;;;5000673;28;20056;-57
2022/10/30 03:39:03;;;;;;;;;;;11.90;99.90;;;;;;4997281;28;20060;-57
2022/10/30 03:41:31;;;;;;;16.05;4.25;;;11.80;99.90;;;;;;5003525;28;19956;-55
2022/10/30 03:43:58;;;;;;;11.98;3.28;;;11.80;99.90;;;;;;5001361;28;20066;-56
2022/10/30 03:46:25;;;;;;;14.77;3.22;;;11.80;99.90;;;;;;4996509;28;20422;-56
2022/10/30 03:48:57;;;;;;;15.75;4.45;;;11.70;99.90;;;;;;5001723;28;20164;-58
2022/10/30 03:51:24;;;;;;;18.92;3.92;;;11.70;99.90;;;;;;5013016;28;20511;-54
2022/10/30 03:53:50;;;;;;;11.80;2.78;;;11.70;99.90;;;;;;5001946;28;20391;-55
2022/10/30 03:56:18;;;;;;;9.40;3.97;;;11.70;99.90;;;;;;5004900;28;20124;-55
2022/10/30 03:58:49;;;;;;;10.30;3.25;;;11.70;99.90;;;;;;4998205;28;20048;-58
2022/10/30 04:01:20;;;;;;;10.38;3.92;;;11.60;99.90;;;;;;4999047;28;20542;-55
2022/10/30 04:03:53;;;;;;;10.27;3.80;;;11.60;99.90;;;;;;4998063;28;20124;-57
2022/10/30 04:06:20;;;;;;;29.73;4.00;;;11.60;99.90;;;;;;5001873;28;20775;-56
2022/10/30 04:08:47;;;;;;;21.60;3.58;;;11.50;99.90;;;;;;4998358;28;20073;-57
2022/10/30 04:11:15;;;;;;;22.92;4.32;;;11.50;99.90;;;;;;5004966;28;20858;-57
2022/10/30 04:13:43;;;;;;;22.75;4.93;;;11.50;99.90;;;;;;5003396;28;20534;-55
2022/10/30 04:16:11;;;;;;;21.52;4.28;;;11.50;99.90;;;;;;5004261;28;20041;-54
2022/10/30 04:18:38;;;;;;;;;;;11.50;99.90;;;;;;5006734;28;20107;-58
2022/10/30 04:21:05;;;;;;;18.02;4.10;;;11.50;99.90;;;;;;4994226;28;20020;-54
2022/10/30 04:23:33;;;;;;;13.07;4.60;;;11.50;99.90;;;;;;5009466;28;20142;-54
2022/10/30 04:26:01;;;;;;;16.05;3.58;;;11.50;99.90;;;;;;4997651;28;20129;-57
2022/10/30 04:28:27;;;;;;;21.13;3.90;;;11.50;99.90;;;;;;4988361;28;20160;-55
2022/10/30 04:30:55;;;;;;;11.57;2.97;;;11.50;99.90;;;;;;4999198;28;20677;-57
2022/10/30 04:33:24;;;;;;;11.85;3.90;;;11.50;99.90;;;;;;5002192;28;20053;-55
2022/10/30 04:35:51;;;;;;;;;;;11.50;99.90;;;;;;5006180;28;20560;-55
2022/10/30 04:38:19;;;;;;;9.65;3.00;;;11.50;99.90;;;;;;4986172;28;19925;-58
2022/10/30 04:40:47;;;;;;;8.02;2.88;;;11.50;99.90;;;;;;4993463;28;20051;-54
2022/10/30 04:43:14;;;;;;;9.55;3.33;;;11.50;99.90;;;;;;5000593;28;20309;-58
2022/10/30 04:45:45;;;;;;;12.88;3.72;;;11.40;99.90;;;;;;4995159;28;20057;-58
2022/10/30 04:48:14;;;;;;;16.00;3.80;;;11.50;99.90;;;;;;5000515;28;20153;-57
2022/10/30 04:50:42;;;;;;;18.67;4.55;;;11.50;99.90;;;;;;4997562;28;20747;-56
2022/10/30 04:53:15;;;;;;;14.05;3.30;;;11.40;99.90;;;;;;4996168;28;20375;-55
2022/10/30 04:55:43;;;;;;;12.88;3.47;;;11.50;99.90;;;;;;4995593;28;20046;-56
2022/10/30 04:58:12;;;;;;;20.17;4.70;;;11.50;99.90;;;;;;4997804;28;20052;-57
2022/10/30 05:00:41;;;;;;;14.23;3.58;;;11.50;99.90;;;;;;5001932;28;20057;-58
2022/10/30 05:03:30;;;;;;;17.77;3.35;;;11.50;99.90;;;;;;4998380;28;20315;-58
2022/10/30 05:06:01;;;;;;;14.98;3.65;;;11.50;99.90;;;;;;4997098;28;20057;-54
2022/10/30 05:08:28;;;;;;;9.10;3.28;;;11.60;99.90;;;;;;4998196;28;20690;-55
2022/10/30 05:10:57;;;;;;;12.02;3.30;;;11.60;99.90;;;;;;4980018;28;20042;-57
2022/10/30 05:13:23;;;;;;;;;;;11.60;99.90;;;;;;4995317;28;20045;-56
2022/10/30 05:15:53;;;;;;;13.43;3.30;;;11.50;99.90;;;;;;4995451;28;20418;-58
2022/10/30 05:18:20;;;;;;;20.35;3.33;;;11.50;99.90;;;;;;4997956;28;20128;-55
2022/10/30 05:20:47;;;;;;;14.80;3.75;;;11.50;99.90;;;;;;5002700;28;20427;-56
2022/10/30 05:23:13;;;;;;;;;;;11.50;99.90;;;;;;5003231;28;20651;-56
2022/10/30 05:25:40;;;;;;;13.98;3.47;;;11.50;99.90;;;;;;4998506;28;19929;-55
2022/10/30 05:28:09;;;;;;;14.98;4.43;;;11.50;99.90;;;;;;5005487;28;20582;-57
2022/10/30 05:30:45;;;;;;;14.23;4.07;;;11.50;99.90;;;;;;4996987;28;20383;-56
2022/10/30 05:33:26;;;;;;;11.27;3.13;;;11.50;99.90;;;;;;4995988;28;20099;-57
2022/10/30 05:35:53;;;;;;;21.52;4.03;;;11.40;99.90;;;;;;4996193;28;20128;-56
2022/10/30 05:38:20;;;;;;;12.60;3.08;;;11.30;99.90;;;;;;4996993;28;20128;-56
2022/10/30 05:40:49;;;;;;;13.48;3.95;;;11.40;99.90;;;;;;5004073;28;20050;-57
2022/10/30 05:43:15;;;;;;;15.85;3.05;;;11.40;99.90;;;;;;4997428;28;20151;-57
2022/10/30 05:45:42;;;;;;;;;;;11.40;99.90;;;;;;4996728;28;20054;-56
2022/10/30 05:48:09;;;;;;;8.98;3.65;;;11.40;99.90;;;;;;4994702;28;20659;-56
2022/10/30 05:50:41;;;;;;;18.42;5.32;;;11.40;99.90;;;;;;4999949;28;20046;-56
2022/10/30 05:53:26;;;;;;;18.50;3.65;;;11.40;99.90;;;;;;4998980;28;20493;-57
2022/10/30 05:55:58;;;;;;;15.65;4.40;;;11.40;99.90;;;;;;4999209;28;20045;-56
2022/10/30 05:58:29;;;;;;;16.13;3.60;;;11.40;99.90;;;;;;4998439;28;20042;-57
2022/10/30 06:01:03;;;;;;;14.50;3.83;;;11.50;99.90;;;;;;4996947;28;20045;-56
2022/10/30 06:03:38;;;;;;;14.20;3.45;;;11.50;99.90;;;;;;5005219;28;20756;-56
2022/10/30 06:06:06;;;;;;;21.13;3.40;;;11.50;99.90;;;;;;4997535;28;20744;-57
2022/10/30 06:08:32;;;;;;;19.75;4.43;;;11.60;99.90;;;;;;4997258;28;20053;-56
2022/10/30 06:11:04;;;;;;;33.85;4.25;;;11.60;99.90;;;;;;4994451;28;20050;-58
2022/10/30 06:13:39;;;;;;;11.65;3.85;;;11.60;99.90;;;;;;4995390;28;20070;-57
2022/10/30 06:16:10;;;;;;;15.40;3.90;;;11.60;99.90;;;;;;4997767;28;20121;-57
2022/10/30 06:18:57;;;;;;;14.02;3.78;;;11.60;99.90;;;;;;5003109;28;20042;-56
2022/10/30 06:21:26;;;;;;;14.85;3.50;;;11.70;99.90;;;;;;5006510;28;20624;-57
2022/10/30 06:24:07;;;;;;;12.43;4.32;;;11.70;99.90;;;;;;5000854;28;20041;-57
2022/10/30 06:26:40;;;;;;;19.45;4.20;;;11.70;99.90;;;;;;4997962;28;20203;-56
2022/10/30 06:29:10;;;;;;;10.55;3.25;;;11.70;99.90;;;;;;5006891;28;20053;-56
2022/10/30 06:31:37;;;;;;;10.20;2.95;;;11.80;99.90;;;;;;4999303;28;20049;-56
2022/10/30 06:34:04;;;;;;;13.63;3.78;;;11.90;99.90;;;;;;5007888;28;20072;-56
2022/10/30 06:36:33;;;;;;;8.35;3.25;;;11.90;99.90;;;;;;5005281;28;20052;-56
2022/10/30 06:39:00;;;;;;;;;;;12.00;99.90;;;;;;5007549;28;20267;-55
2022/10/30 06:41:33;;;;;;;19.60;3.85;;;12.10;99.90;;;;;;5005096;28;20012;-56
2022/10/30 06:44:19;;;;;;;16.08;3.72;;;12.20;99.90;;;;;;5002872;28;20056;-58
2022/10/30 06:46:46;;;;;;;;;;;12.30;99.90;;;;;;5008913;28;20284;-58
2022/10/30 06:49:12;;;;;;;6.07;2.95;;;12.40;99.90;;;;;;5015904;28;20369;-57
2022/10/30 06:51:39;;;;;;;;;;;12.50;99.90;;;;;;4997893;28;20064;-56
2022/10/30 06:54:06;;;;;;;22.05;3.13;;;12.60;99.90;;;;;;4997299;28;20502;-55
2022/10/30 06:56:38;;;;;;;16.35;3.00;;;12.70;99.90;;;;;;5000140;28;20823;-56
2022/10/30 06:59:23;;;;;;;14.85;3.88;;;12.80;99.90;;;;;;5000604;28;20522;-56
2022/10/30 07:02:13;;;;;;;13.25;3.55;;;12.90;99.90;;;;;;5001018;28;20088;-58
2022/10/30 07:04:47;;;;;;;10.90;3.55;;;13.00;99.90;;;;;;5008815;28;20206;-58
2022/10/30 07:07:14;;;;;;;16.13;3.80;;;13.10;99.90;;;;;;4999411;28;20057;-56
2022/10/30 07:09:42;;;;;;;14.52;2.97;;;13.20;99.90;;;;;;5000719;28;20041;-56
2022/10/30 07:12:09;;;;;;;9.32;4.00;;;13.40;99.90;;;;;;4999145;28;20306;-57
2022/10/30 07:14:47;;;;;;;12.90;3.55;;;13.60;99.90;;;;;;4995377;28;20040;-54
2022/10/30 07:17:28;;;;;;;16.30;4.00;;;13.90;99.90;;;;;;5001694;28;20500;-57
2022/10/30 07:19:59;;;;;;;16.00;4.93;;;14.10;99.90;;;;;;4999170;28;20562;-57
2022/10/30 07:22:26;;;;;;;7.20;3.00;;;14.40;99.90;;;;;;4995078;28;20608;-55
2022/10/30 07:24:53;;;;;;;17.65;2.85;;;14.70;99.90;;;;;;4999086;28;20037;-58
2022/10/30 07:27:46;;;;;;;6.95;2.72;;;15.00;99.90;;;;;;5006241;28;20367;-55
2022/10/30 07:30:32;;;;;;;17.42;3.58;;;15.30;99.90;;;;;;4997982;28;20720;-59
2022/10/30 07:33:22;;;;;;;12.60;3.55;;;15.40;99.90;;;;;;4996538;28;20072;-60
2022/10/30 07:36:00;;;;;;;12.40;3.22;;;15.50;99.90;;;;;;5001361;28;20543;-61
2022/10/30 07:38:41;;;;;;;8.43;2.67;;;15.60;99.90;;;;;;5007791;28;20048;-63
2022/10/30 07:41:21;;;;;;;12.30;3.95;;;15.60;99.90;;;;;;5005330;28;20042;-63
2022/10/30 07:43:50;;;;;;;15.80;2.83;;;15.60;99.90;;;;;;5005517;28;20045;-58
2022/10/30 07:46:45;;;;;;;19.00;3.55;;;15.60;99.90;;;;;;4998966;28;20065;-57
2022/10/30 07:49:34;;;;;;;11.80;3.92;;;15.50;99.90;;;;;;4996772;28;20215;-60
2022/10/30 07:52:04;;;;;;;14.68;3.10;;;15.50;99.90;;;;;;4988489;28;20050;-57
2022/10/30 07:54:31;;;;;;;14.13;3.10;;;15.50;99.90;;;;;;5005005;28;20508;-58
2022/10/30 07:57:10;;;;;;;8.38;3.28;;;15.50;99.90;;;;;;5003969;28;20053;-56
2022/10/30 07:59:56;;;;;;;10.00;2.70;;;15.50;99.90;;;;;;5001300;28;20061;-57
2022/10/30 08:02:38;;;;;;;13.50;3.08;;;15.60;99.90;;;;;;5003768;28;20048;-55
2022/10/30 08:05:17;;;;;;;17.20;3.20;;;15.80;99.90;;;;;;4998339;28;20144;-56
2022/10/30 08:08:07;;;;;;;8.25;2.90;;;16.00;99.90;;;;;;4995604;28;20523;-54
2022/10/30 08:10:35;;;;;;;23.33;3.45;;;16.20;99.90;;;;;;4998386;28;20054;-58
2022/10/30 08:13:02;;;;;;;12.32;3.03;;;16.40;99.90;;;;;;5005926;28;20589;-58
2022/10/30 08:15:30;;;;;;;19.70;3.60;;;16.60;99.90;;;;;;5006520;28;20050;-55
2022/10/30 08:17:56;;;;;;;;;;;16.80;99.90;;;;;;5000409;28;20276;-57
2022/10/30 08:20:24;;;;;;;9.32;2.90;;;16.90;99.90;;;;;;4998430;28;19933;-56
2022/10/30 08:22:51;;;;;;;;;;;17.10;99.90;;;;;;4997324;28;20045;-55
2022/10/30 08:25:27;;;;;;;13.93;3.45;;;17.20;99.90;;;;;;4997705;28;20216;-56
2022/10/30 08:28:03;;;;;;;10.70;3.17;;;17.30;99.90;;;;;;5004652;28;20046;-55
2022/10/30 08:30:35;;;;;;;13.27;2.53;;;17.30;99.90;;;;;;4999593;28;20046;-54
2022/10/30 08:33:06;;;;;;;9.57;2.47;;;17.40;99.90;;;;;;5000520;28;20049;-57
2022/10/30 08:36:01;;;;;;;10.05;3.30;;;17.50;99.90;;;;;;4999972;28;20388;-62
2022/10/30 08:38:30;;;;;;;8.65;2.50;;;17.60;99.90;;;;;;4999046;28;20544;-59
2022/10/30 08:41:33;;;;;;;17.10;2.85;;;17.70;99.90;;;;;;4976159;28;20088;-56
2022/10/30 08:44:00;;;;;;;18.20;3.70;;;17.70;99.90;;;;;;4987764;28;20133;-55
2022/10/30 08:46:38;;;;;;;13.43;4.00;;;17.70;99.90;;;;;;4998745;28;20154;-58
2022/10/30 08:49:04;;;;;;;10.45;3.97;;;17.70;99.90;;;;;;5011032;28;20467;-55
2022/10/30 08:51:38;;;;;;;17.55;5.05;;;17.60;99.90;;;;;;4998232;28;20125;-56
2022/10/30 08:54:09;;;;;;;9.98;3.28;;;17.50;99.90;;;;;;5006147;28;20045;-55
2022/10/30 08:56:35;;;;;;;18.13;3.90;;;17.40;99.90;;;;;;4999373;28;20137;-52
2022/10/30 08:59:11;;;;;;;8.05;3.42;;;17.40;99.90;;;;;;5002242;28;20584;-57
2022/10/30 09:01:44;;;;;;;15.95;4.45;;;17.50;99.90;;;;;;5010684;28;20152;-54
2022/10/30 09:04:11;;;;;;;11.65;3.42;;;17.50;99.90;;;;;;4998340;28;20049;-56
2022/10/30 09:06:50;;;;;;;12.23;3.92;;;17.60;99.90;;;;;;4998628;28;20077;-56
2022/10/30 09:09:23;;;;;;;12.20;3.85;;;17.70;99.90;;;;;;4997895;28;20484;-56
2022/10/30 09:11:54;;;;;;;11.80;4.22;;;17.80;99.90;;;;;;5000409;28;20042;-57
2022/10/30 09:14:21;;;;;;;10.80;3.78;;;17.80;99.90;;;;;;4997540;28;20046;-56
2022/10/30 09:16:48;;;;;;;12.15;3.70;;;17.80;99.90;;;;;;4999370;28;20585;-56
2022/10/30 09:19:18;;;;;;;14.98;4.00;;;17.90;99.90;;;;;;5009783;28;20392;-56
2022/10/30 09:21:46;;;;;;;14.85;4.20;;;18.00;99.90;;;;;;4995873;28;20536;-59
2022/10/30 09:24:13;;;;;;;10.50;3.42;;;18.10;99.90;;;;;;4999060;28;20489;-56
2022/10/30 09:26:39;;;;;;;;;;;18.10;99.90;;;;;;4995243;28;20136;-56
2022/10/30 09:29:11;;;;;;;15.75;4.30;;;18.10;99.90;;;;;;4995159;28;20476;-55
2022/10/30 09:31:58;;;;;;;20.70;5.47;;;18.20;99.90;;;;;;4997788;28;20049;-54
2022/10/30 09:34:29;;;;;;;14.13;4.18;;;18.30;99.90;;;;;;4999498;28;20042;-56
2022/10/30 09:37:03;;;;;;;14.95;5.57;;;18.40;99.90;;;;;;4999246;28;20075;-54
2022/10/30 09:39:34;;;;;;;9.00;3.95;;;18.50;99.90;;;;;;4990158;28;20042;-55
2022/10/30 09:42:11;;;;;;;16.92;4.55;;;18.60;99.90;;;;;;4999147;28;20496;-55
2022/10/30 09:45:08;;;;;;;13.57;4.78;;;18.60;99.90;;;;;;4993473;28;20466;-54
2022/10/30 09:48:21;;;;;;;10.82;4.40;;;18.70;99.90;;;;;;4997592;28;20375;-57
2022/10/30 09:50:58;;;;;;;14.70;4.10;;;18.80;99.90;;;;;;5004721;28;20050;-56
2022/10/30 09:53:38;;;;;;;12.73;4.10;;;18.90;99.90;;;;;;5000021;28;20437;-56
2022/10/30 09:56:28;;;;;;;10.25;3.65;;;18.90;99.90;;;;;;5002816;28;20041;-56
2022/10/30 09:59:16;;;;;;;13.30;4.20;;;19.00;99.90;;;;;;4999484;28;20050;-55
2022/10/30 10:02:18;;;;;;;10.90;4.45;;;19.20;99.90;;;;;;5000958;28;20060;-56
2022/10/30 10:04:50;;;;;;;18.02;3.33;;;19.40;99.90;;;;;;5007730;28;20138;-55
2022/10/30 10:07:40;;;;;;;23.20;4.22;;;19.60;99.90;;;;;;5001682;28;20119;-53
2022/10/30 10:10:39;;;;;;;13.63;3.58;;;19.80;99.90;;;;;;5004964;28;20042;-52
2022/10/30 10:13:21;;;;;;;11.38;3.33;;;20.00;99.90;;;;;;5010142;28;20576;-54
2022/10/30 10:15:53;;;;;;;10.82;3.38;;;20.30;99.90;;;;;;5000626;28;20082;-54
2022/10/30 10:18:32;;;;;;;9.95;3.08;;;20.50;99.90;;;;;;4999219;28;20839;-55
2022/10/30 10:21:17;;;;;;;18.17;3.35;;;20.70;99.90;;;;;;5001758;28;20345;-56
2022/10/30 10:23:47;;;;;;;9.48;4.07;;;20.90;99.10;;;;;;4997939;28;20304;-57
2022/10/30 10:26:26;;;;;;;20.25;4.68;;;21.00;96.60;;;;;;5000227;28;20143;-57
2022/10/30 10:29:00;;;;;;;13.90;2.80;;;21.10;94.50;;;;;;5000551;28;20123;-55
2022/10/30 10:31:55;;;;;;;18.63;4.43;;;21.00;95.00;;;;;;5002833;28;20519;-56
2022/10/30 10:34:50;;;;;;;10.80;3.50;;;21.00;96.40;;;;;;4997397;28;20135;-55
2022/10/30 10:37:49;;;;;;;13.25;3.97;;;20.90;98.60;;;;;;4998600;28;20049;-55
2022/10/30 10:40:30;;;;;;;9.98;3.08;;;20.90;99.90;;;;;;5001534;28;20130;-56
2022/10/30 10:43:09;;;;;;;13.38;3.20;;;20.80;99.90;;;;;;5001501;28;20153;-57
2022/10/30 10:46:02;;;;;;;10.63;3.00;;;20.80;99.90;;;;;;4998277;28;20519;-55
2022/10/30 10:48:57;;;;;;;10.98;3.10;;;20.80;99.90;;;;;;5000173;28;20578;-56
2022/10/30 10:51:37;;;;;;;6.97;2.45;;;20.80;99.90;;;;;;5002257;28;20081;-56
2022/10/30 10:54:13;;;;;;;11.52;3.53;;;20.70;99.90;;;;;;4998577;28;20054;-56
2022/10/30 10:56:45;;;;;;;10.15;3.28;;;20.70;99.90;;;;;;4998030;28;20069;-54
2022/10/30 10:59:33;;;;;;;16.83;4.50;;;20.70;99.90;;;;;;5001960;28;20037;-54
2022/10/30 11:02:34;;;;;;;13.15;4.30;;;20.70;99.90;;;;;;5000090;28;20045;-56
2022/10/30 11:05:15;;;;;;;17.13;4.15;;;20.50;99.90;;;;;;5003094;28;20062;-55
2022/10/30 11:07:47;;;;;;;10.77;4.15;;;20.40;99.90;;;;;;4999273;28;20509;-56
2022/10/30 11:10:17;;;;;;;14.07;3.97;;;20.30;99.90;;;;;;5001848;28;20590;-55
2022/10/30 11:12:44;;;;;;;13.02;3.75;;;20.10;99.90;;;;;;4999501;28;20395;-56
2022/10/30 11:15:40;;;;;;;12.02;3.97;;;20.00;99.90;;;;;;5000725;28;20085;-55
2022/10/30 11:18:08;;;;;;;7.45;3.45;;;20.00;99.90;;;;;;5001677;28;20538;-55
2022/10/30 11:20:54;;;;;;;20.10;5.05;;;20.10;99.90;;;;;;4998281;28;20485;-55
2022/10/30 11:23:31;;;;;;;13.98;4.20;;;20.20;99.90;;;;;;4999888;28;20131;-56
2022/10/30 11:25:58;;;;;;;19.67;4.78;;;20.40;99.90;;;;;;4996953;28;20522;-55
2022/10/30 11:28:47;;;;;;;16.50;5.10;;;20.40;99.90;;;;;;4997064;28;20045;-57
2022/10/30 11:31:18;;;;;;;12.63;3.67;;;20.60;99.90;;;;;;4995725;28;20068;-56
2022/10/30 11:33:46;;;;;;;12.82;3.88;;;20.60;99.90;;;;;;4999083;28;20241;-57
2022/10/30 11:36:20;;;;;;;21.60;4.40;;;20.70;99.90;;;;;;4998325;28;20042;-57
2022/10/30 11:38:47;;;;;;;16.40;4.28;;;20.80;99.90;;;;;;4999383;28;20042;-55
2022/10/30 11:41:14;;;;;;;23.23;4.43;;;20.70;99.90;;;;;;4998972;28;20854;-55
2022/10/30 11:43:42;;;;;;;15.75;4.55;;;20.70;99.90;;;;;;5000154;28;20049;-54
2022/10/30 11:46:19;;;;;;;14.77;5.05;;;20.70;99.90;;;;;;5001393;28;20537;-55
2022/10/30 11:48:53;;;;;;;19.08;4.82;;;20.70;99.90;;;;;;5001027;28;20046;-55
2022/10/30 11:51:36;;;;;;;10.70;4.10;;;20.80;99.90;;;;;;4998499;28;20609;-55
2022/10/30 11:54:04;;;;;;;17.52;5.53;;;20.70;99.90;;;;;;4999434;28;20496;-55
2022/10/30 11:56:32;;;;;;;17.75;6.22;;;20.80;99.90;;;;;;4998875;28;20638;-54
2022/10/30 11:59:02;;;;;;;14.82;5.50;;;20.70;99.90;;;;;;5000450;28;20045;-57
2022/10/30 12:01:38;;;;;;;10.35;5.05;;;20.80;99.90;;;;;;5002063;28;20525;-56
2022/10/30 12:04:14;;;;;;;15.07;5.97;;;20.80;99.90;;;;;;4999963;28;20226;-56
2022/10/30 12:06:41;;;;;;;13.75;4.95;;;20.80;99.90;;;;;;5003588;28;20041;-56
2022/10/30 12:09:14;;;;;;;19.17;7.57;;;20.90;99.90;;;;;;4998488;28;20175;-55
2022/10/30 12:11:43;;;;;;;17.08;6.18;;;20.90;99.90;;;;;;4994372;28;20037;-57
2022/10/30 12:14:25;;;;;;;20.60;7.32;;;20.90;99.90;;;;;;4996695;28;20050;-55
2022/10/30 12:16:55;;;;;;;13.77;6.32;;;20.90;99.90;;;;;;4994100;28;20627;-54
2022/10/30 12:19:24;;;;;;;19.38;6.18;;;20.90;99.90;;;;;;4997696;28;20096;-55
2022/10/30 12:21:55;;;;;;;13.23;6.32;;;20.90;99.90;;;;;;4995495;28;20065;-56
2022/10/30 12:24:35;;;;;;;17.67;6.93;;;20.90;99.90;;;;;;4997459;28;20077;-54
2022/10/30 12:27:05;;;;;;;18.90;6.03;;;20.90;99.90;;;;;;4997312;28;20557;-56
2022/10/30 12:29:42;;;;;;;29.98;6.78;;;20.90;99.90;;;;;;4995990;28;20208;-56
2022/10/30 12:32:43;;;;;;;17.90;6.22;;;21.00;99.90;;;;;;5001062;28;20053;-55
2022/10/30 12:35:45;;;;;;;15.57;5.75;;;21.00;99.90;;;;;;5000598;28;20559;-55
2022/10/30 12:38:23;;;;;;;16.98;6.95;;;21.00;99.90;;;;;;4990712;28;20213;-54
2022/10/30 12:41:11;;;;;;;20.33;5.50;;;20.90;99.90;;;;;;4998244;28;20103;-55
2022/10/30 12:43:40;;;;;;;19.30;5.53;;;20.90;99.90;;;;;;4998853;28;20099;-56
2022/10/30 12:46:37;;;;;;;21.52;6.65;;;20.90;99.90;;;;;;4996752;28;20041;-55
2022/10/30 12:49:18;;;;;;;14.80;6.63;;;20.90;99.90;;;;;;4999741;28;20072;-53
2022/10/30 12:51:53;;;;;;;16.40;5.50;;;20.90;99.90;;;;;;4998971;28;20357;-55
2022/10/30 12:54:38;;;;;;;18.85;5.25;;;20.90;99.90;;;;;;4998658;28;20464;-58
2022/10/30 12:57:23;;;;;;;26.67;6.85;;;20.90;99.90;;;;;;5000461;28;20052;-60
2022/10/30 12:59:58;;;;;;;17.80;6.20;;;21.10;99.90;;;;;;4997159;28;20065;-55
2022/10/30 13:02:29;;;;;;;18.58;5.20;;;21.20;99.90;;;;;;4996092;28;20464;-55
2022/10/30 13:05:04;;;;;;;20.83;7.20;;;21.30;99.90;;;;;;4993848;28;20077;-54
2022/10/30 13:07:40;;;;;;;15.90;5.90;;;21.40;99.90;;;;;;4988114;28;20285;-54
2022/10/30 13:10:19;;;;;;;22.83;6.75;;;21.50;99.90;;;;;;4996021;28;20165;-56
2022/10/30 13:12:51;;;;;;;16.13;7.03;;;21.50;99.90;;;;;;4996073;28;20250;-57
2022/10/30 13:15:43;;;;;;;13.60;5.57;;;21.60;99.90;;;;;;4994962;28;20077;-55
2022/10/30 13:18:21;;;;;;;16.38;5.32;;;21.60;99.90;;;;;;4999267;28;20063;-56